Time;durP1;ratioP1;P1;durP2;ratioP2;P2;SDS_P1;SDS_P2;PMS_P1;PMS_P2;Temp;Humidity;BMP_temperature;BMP_pressure;BME280_temperature;BME280_humidity;BME280_pressure;Samples;Min_cycle;Max_cycle;Signal;HPM_P1;HPM_P2
2023/12/30 00:00:20;;;;;;;1.25;0.68;;;26.40;99.90;;;;;;5132654;27;20296;-79
2023/12/30 00:02:54;;;;;;;3.58;1.15;;;26.30;99.90;;;;;;5133478;27;20190;-79
2023/12/30 00:05:25;;;;;;;4.85;1.17;;;26.30;99.90;;;;;;5133589;27;20682;-79
2023/12/30 00:07:56;;;;;;;1.52;0.80;;;26.20;99.90;;;;;;5124524;27;20664;-80
2023/12/30 00:10:28;;;;;;;2.17;0.93;;;26.10;99.90;;;;;;5140881;27;20781;-79
2023/12/30 00:12:59;;;;;;;1.33;0.80;;;26.00;99.90;;;;;;5134261;27;20202;-78
2023/12/30 00:15:30;;;;;;;1.92;0.88;;;26.20;99.90;;;;;;5147782;27;20224;-79
2023/12/30 00:18:02;;;;;;;2.72;0.82;;;26.30;99.90;;;;;;5134931;27;20281;-79
2023/12/30 00:20:33;;;;;;;1.67;0.88;;;26.30;99.90;;;;;;5133574;27;20182;-78
2023/12/30 00:23:04;;;;;;;2.20;0.98;;;26.40;99.90;;;;;;5127243;27;20236;-80
2023/12/30 00:25:35;;;;;;;3.53;0.82;;;26.40;99.90;;;;;;5133436;27;20217;-79
2023/12/30 00:28:08;;;;;;;2.47;0.70;;;26.40;99.90;;;;;;5131992;27;20200;-80
2023/12/30 00:30:39;;;;;;;2.40;0.95;;;26.50;99.90;;;;;;5142396;27;20213;-80
2023/12/30 00:33:11;;;;;;;2.25;0.80;;;26.50;99.90;;;;;;5136654;27;20293;-77
2023/12/30 00:35:42;;;;;;;3.08;0.90;;;26.40;99.90;;;;;;5147122;27;20570;-80
2023/12/30 00:38:15;;;;;;;4.95;0.90;;;26.40;99.90;;;;;;5152482;27;20269;-78
2023/12/30 00:40:46;;;;;;;2.42;0.75;;;26.40;99.90;;;;;;5120212;27;20210;-77
2023/12/30 00:43:17;;;;;;;2.10;1.00;;;26.50;99.90;;;;;;5135451;27;20210;-78
2023/12/30 00:45:48;;;;;;;2.60;0.73;;;26.50;99.90;;;;;;5136568;27;20232;-78
2023/12/30 00:48:21;;;;;;;2.88;0.95;;;26.70;99.90;;;;;;5134374;27;20197;-78
2023/12/30 00:50:54;;;;;;;1.73;0.85;;;26.70;99.90;;;;;;5119230;27;20301;-80
2023/12/30 00:53:25;;;;;;;3.67;1.10;;;26.60;99.90;;;;;;5135002;27;20198;-79
2023/12/30 00:55:56;;;;;;;2.63;1.00;;;26.80;99.90;;;;;;5133982;27;20225;-79
2023/12/30 00:58:27;;;;;;;3.35;0.90;;;26.70;99.90;;;;;;5133635;27;20200;-79
2023/12/30 01:00:58;;;;;;;3.65;0.90;;;26.70;99.90;;;;;;5133167;27;20194;-80
2023/12/30 01:03:30;;;;;;;3.35;1.02;;;26.60;99.90;;;;;;5135146;27;20204;-79
2023/12/30 01:06:01;;;;;;;2.10;0.70;;;26.60;99.90;;;;;;5134048;27;20240;-78
2023/12/30 01:08:44;;;;;;;3.45;0.90;;;26.70;99.90;;;;;;5131594;27;20258;-79
2023/12/30 01:11:16;;;;;;;2.95;0.80;;;26.80;99.90;;;;;;5126942;27;20256;-77
2023/12/30 01:13:46;;;;;;;4.20;0.80;;;26.70;99.90;;;;;;5134772;27;20190;-78
2023/12/30 01:16:19;;;;;;;2.95;0.75;;;26.60;99.90;;;;;;5132188;27;20222;-78
2023/12/30 01:18:52;;;;;;;1.60;0.90;;;26.50;99.90;;;;;;5122502;27;20587;-78
2023/12/30 01:21:23;;;;;;;2.80;1.00;;;26.50;99.90;;;;;;5131713;27;20697;-79
2023/12/30 01:23:56;;;;;;;2.20;0.90;;;26.30;99.90;;;;;;5136446;27;20210;-78
2023/12/30 01:26:27;;;;;;;1.13;0.80;;;26.30;99.90;;;;;;5138025;27;20260;-78
2023/12/30 01:28:58;;;;;;;0.70;0.70;;;26.50;99.90;;;;;;5151440;27;20267;-79
2023/12/30 01:31:29;;;;;;;3.10;0.73;;;26.60;99.90;;;;;;5131966;27;20238;-78
2023/12/30 01:34:02;;;;;;;1.70;0.88;;;26.80;99.90;;;;;;5127392;27;20379;-79
2023/12/30 01:36:33;;;;;;;2.10;0.80;;;27.00;99.90;;;;;;5125096;27;20218;-79
2023/12/30 01:39:04;;;;;;;1.20;0.63;;;27.10;99.90;;;;;;5129636;27;20273;-78
2023/12/30 01:41:35;;;;;;;1.88;0.80;;;27.10;99.90;;;;;;5124331;27;20214;-79
2023/12/30 01:44:12;;;;;;;1.27;0.70;;;27.20;99.90;;;;;;5132854;27;20255;-78
2023/12/30 01:46:43;;;;;;;3.42;0.90;;;27.20;99.90;;;;;;5134376;27;20200;-79
2023/12/30 01:49:16;;;;;;;1.42;0.70;;;27.30;99.90;;;;;;5135493;27;20193;-79
2023/12/30 01:51:48;;;;;;;3.40;1.00;;;27.30;99.90;;;;;;5126921;27;20237;-79
2023/12/30 01:54:22;;;;;;;1.42;0.60;;;27.40;99.90;;;;;;5133578;27;20216;-79
2023/12/30 01:56:55;;;;;;;1.90;0.90;;;27.50;99.90;;;;;;5136565;27;20256;-79
2023/12/30 01:59:28;;;;;;;1.33;0.80;;;27.60;99.90;;;;;;5145602;27;20255;-78
2023/12/30 02:02:04;;;;;;;1.40;0.80;;;27.50;99.90;;;;;;5136965;27;20285;-79
2023/12/30 02:04:38;;;;;;;1.58;0.80;;;27.60;99.90;;;;;;5136166;27;20232;-77
2023/12/30 02:07:08;;;;;;;2.10;0.82;;;27.60;99.90;;;;;;5135511;27;20239;-78
2023/12/30 02:09:39;;;;;;;2.95;1.08;;;27.50;99.90;;;;;;5124714;27;20233;-78
2023/12/30 02:12:11;;;;;;;1.55;0.80;;;27.60;99.90;;;;;;5121132;27;20192;-78
2023/12/30 02:14:42;;;;;;;1.42;0.70;;;27.60;99.90;;;;;;5133516;27;20330;-79
2023/12/30 02:17:12;;;;;;;2.33;0.82;;;27.60;99.90;;;;;;5133075;27;20190;-79
2023/12/30 02:19:45;;;;;;;2.78;1.10;;;27.60;99.90;;;;;;5116623;27;20214;-78
2023/12/30 02:22:16;;;;;;;2.53;0.95;;;27.60;99.90;;;;;;5126814;27;20190;-78
2023/12/30 02:24:49;;;;;;;1.48;0.80;;;27.60;99.90;;;;;;5132278;27;20616;-79
2023/12/30 02:27:20;;;;;;;1.92;0.82;;;27.70;99.90;;;;;;5133105;27;20297;-79
2023/12/30 02:29:51;;;;;;;2.08;0.80;;;27.70;99.90;;;;;;5133648;27;20200;-78
2023/12/30 02:32:22;;;;;;;2.60;1.00;;;27.80;99.90;;;;;;5133414;27;20254;-79
2023/12/30 02:34:52;;;;;;;2.38;0.80;;;27.80;99.90;;;;;;5133138;27;20226;-79
2023/12/30 02:37:23;;;;;;;0.93;0.60;;;27.80;99.90;;;;;;5134144;27;20284;-78
2023/12/30 02:39:57;;;;;;;2.65;0.75;;;27.80;99.90;;;;;;5132421;27;20262;-79
2023/12/30 02:42:27;;;;;;;1.63;0.80;;;27.80;99.90;;;;;;5112297;28;20201;-79
2023/12/30 02:44:58;;;;;;;1.75;0.82;;;27.80;99.90;;;;;;5113296;28;20252;-78
2023/12/30 02:47:29;;;;;;;1.48;0.98;;;27.70;99.90;;;;;;5113017;28;20580;-79
2023/12/30 02:50:00;;;;;;;1.58;1.20;;;27.80;99.90;;;;;;5130531;27;20271;-79
2023/12/30 02:52:31;;;;;;;2.80;1.13;;;27.90;99.30;;;;;;5133787;27;20571;-79
2023/12/30 02:55:04;;;;;;;1.30;1.00;;;27.90;99.60;;;;;;5112941;28;20618;-79
2023/12/30 02:57:35;;;;;;;2.97;1.15;;;27.90;96.80;;;;;;5117753;27;20284;-78
2023/12/30 03:00:06;;;;;;;3.75;1.00;;;27.80;97.40;;;;;;5132873;27;20224;-79
2023/12/30 03:02:37;;;;;;;2.50;0.90;;;27.90;97.60;;;;;;5131178;27;20208;-79
2023/12/30 03:05:09;;;;;;;1.00;0.68;;;27.90;97.80;;;;;;5129255;27;20197;-78
2023/12/30 03:07:39;;;;;;;2.65;0.80;;;27.90;98.60;;;;;;5121849;27;20656;-77
2023/12/30 03:10:13;;;;;;;2.15;0.80;;;27.90;98.80;;;;;;5131490;27;20236;-77
2023/12/30 03:12:44;;;;;;;1.63;1.05;;;27.90;99.90;;;;;;5117359;27;20486;-77
2023/12/30 03:15:17;;;;;;;3.38;1.25;;;27.80;99.90;;;;;;5131338;27;20316;-76
2023/12/30 03:17:49;;;;;;;2.17;0.90;;;27.80;99.90;;;;;;5132481;28;20193;-77
2023/12/30 03:20:19;;;;;;;2.80;0.80;;;27.90;99.90;;;;;;5132567;28;20204;-76
2023/12/30 03:22:50;;;;;;;3.20;1.00;;;27.80;99.90;;;;;;5131647;27;20193;-77
2023/12/30 03:25:23;;;;;;;2.92;1.15;;;27.80;99.90;;;;;;5131123;28;20201;-77
2023/12/30 03:27:54;;;;;;;4.00;1.50;;;27.80;99.90;;;;;;5131731;28;20220;-78
2023/12/30 03:30:24;;;;;;;2.72;1.00;;;27.90;99.90;;;;;;5127116;27;20294;-79
2023/12/30 03:32:55;;;;;;;3.13;1.00;;;27.90;99.90;;;;;;5129418;28;20201;-78
2023/12/30 03:35:26;;;;;;;1.23;0.90;;;28.00;99.90;;;;;;5130233;27;20327;-78
2023/12/30 03:37:57;;;;;;;2.90;1.00;;;28.00;99.90;;;;;;5116295;27;20357;-78
2023/12/30 03:40:29;;;;;;;3.95;1.10;;;28.00;99.90;;;;;;5110577;28;20194;-78
2023/12/30 03:43:00;;;;;;;2.80;1.33;;;28.10;99.90;;;;;;5113286;28;20190;-78
2023/12/30 03:45:31;;;;;;;2.40;0.93;;;28.00;99.90;;;;;;5131246;28;20197;-78
2023/12/30 03:48:02;;;;;;;3.45;0.82;;;28.00;99.90;;;;;;5132388;28;20236;-78
2023/12/30 03:50:33;;;;;;;2.80;1.02;;;27.90;99.90;;;;;;5137938;28;20194;-79
2023/12/30 03:53:04;;;;;;;2.10;1.15;;;27.90;99.90;;;;;;5129694;27;20194;-79
2023/12/30 03:55:37;;;;;;;3.05;1.30;;;27.90;99.90;;;;;;5112042;28;20227;-78
2023/12/30 03:58:08;;;;;;;2.63;1.10;;;28.00;99.90;;;;;;5116225;27;20202;-78
2023/12/30 04:00:39;;;;;;;2.95;0.88;;;28.00;99.90;;;;;;5130597;27;20740;-78
2023/12/30 04:03:09;;;;;;;2.75;1.00;;;27.90;99.90;;;;;;5122678;28;20277;-79
2023/12/30 04:05:40;;;;;;;2.50;1.00;;;27.90;99.90;;;;;;5117075;28;20247;-80
2023/12/30 04:08:11;;;;;;;3.55;0.95;;;27.70;99.90;;;;;;5130899;28;20286;-79
2023/12/30 04:10:44;;;;;;;3.45;1.17;;;27.80;99.90;;;;;;5115986;27;20558;-78
2023/12/30 04:13:15;;;;;;;1.88;0.90;;;27.80;99.90;;;;;;5111336;28;20272;-79
2023/12/30 04:15:46;;;;;;;2.47;1.13;;;27.90;99.90;;;;;;5116594;27;20222;-79
2023/12/30 04:18:16;;;;;;;4.57;1.30;;;27.90;99.90;;;;;;5116302;27;20214;-79
2023/12/30 04:20:47;;;;;;;1.92;1.00;;;27.90;99.90;;;;;;5123822;27;20205;-79
2023/12/30 04:23:18;;;;;;;2.47;0.85;;;27.80;99.90;;;;;;5123996;27;20213;-77
2023/12/30 04:25:51;;;;;;;2.60;0.90;;;27.70;99.90;;;;;;5125492;27;20291;-78
2023/12/30 04:28:22;;;;;;;2.35;0.93;;;27.70;99.90;;;;;;5113328;28;20638;-78
2023/12/30 04:30:52;;;;;;;1.42;0.77;;;27.50;99.90;;;;;;5125301;27;20209;-78
2023/12/30 04:33:23;;;;;;;3.03;1.00;;;27.60;99.90;;;;;;5133820;27;20198;-78
2023/12/30 04:35:54;;;;;;;4.57;1.08;;;27.70;99.90;;;;;;5134290;27;20769;-78
2023/12/30 04:38:25;;;;;;;3.33;1.10;;;27.70;99.90;;;;;;5134113;27;20565;-78
2023/12/30 04:40:57;;;;;;;2.17;1.00;;;27.80;99.90;;;;;;5133877;27;20205;-78
2023/12/30 04:43:28;;;;;;;4.68;1.35;;;27.80;99.90;;;;;;5125726;27;20194;-77
2023/12/30 04:45:59;;;;;;;3.17;1.13;;;27.70;99.90;;;;;;5115527;27;20335;-78
2023/12/30 04:48:30;;;;;;;3.70;1.23;;;27.70;99.90;;;;;;5126140;27;20190;-78
2023/12/30 04:51:01;;;;;;;3.10;1.00;;;27.50;99.90;;;;;;5113664;28;20245;-79
2023/12/30 04:53:32;;;;;;;3.60;1.10;;;27.20;99.90;;;;;;5122248;27;20648;-78
2023/12/30 04:56:06;;;;;;;3.42;1.10;;;27.40;99.90;;;;;;5131939;27;20229;-78
2023/12/30 04:58:37;;;;;;;5.60;1.45;;;27.70;99.90;;;;;;5131506;27;20204;-78
2023/12/30 05:01:08;;;;;;;3.75;1.40;;;27.80;99.90;;;;;;5128693;27;20198;-77
2023/12/30 05:03:39;;;;;;;3.63;1.25;;;28.00;99.90;;;;;;5120611;27;20194;-78
2023/12/30 05:06:10;;;;;;;2.97;1.02;;;27.90;99.90;;;;;;5138481;27;20201;-77
2023/12/30 05:08:41;;;;;;;2.35;1.02;;;28.00;99.90;;;;;;5162253;27;20258;-79
2023/12/30 05:11:14;;;;;;;3.10;1.15;;;27.90;99.90;;;;;;5126986;27;20232;-79
2023/12/30 05:13:48;;;;;;;4.65;1.90;;;27.80;99.90;;;;;;5147045;27;20255;-78
2023/12/30 05:16:19;;;;;;;3.60;1.50;;;27.80;99.90;;;;;;5126079;27;20229;-79
2023/12/30 05:18:49;;;;;;;2.85;1.35;;;28.00;99.90;;;;;;5125151;27;20191;-79
2023/12/30 05:21:20;;;;;;;3.03;1.52;;;27.90;99.90;;;;;;5116158;27;20191;-77
2023/12/30 05:23:51;;;;;;;3.95;1.13;;;27.90;99.90;;;;;;5130299;27;20205;-78
2023/12/30 05:26:24;;;;;;;3.88;1.30;;;27.50;99.90;;;;;;5123961;27;20207;-78
2023/12/30 05:28:55;;;;;;;2.90;1.20;;;27.20;99.90;;;;;;5112319;28;20221;-78
2023/12/30 05:31:26;;;;;;;3.60;1.15;;;27.20;99.90;;;;;;5115716;27;20237;-78
2023/12/30 05:33:57;;;;;;;3.40;1.25;;;27.20;99.90;;;;;;5122616;27;20259;-79
2023/12/30 05:36:28;;;;;;;3.97;1.70;;;27.10;99.90;;;;;;5112897;27;20223;-78
2023/12/30 05:38:58;;;;;;;3.50;1.20;;;27.10;99.90;;;;;;5132706;27;20573;-78
2023/12/30 05:41:31;;;;;;;4.22;1.63;;;27.50;99.90;;;;;;5124882;27;20566;-78
2023/12/30 05:44:02;;;;;;;4.72;1.38;;;27.90;99.90;;;;;;5130160;27;20710;-78
2023/12/30 05:46:33;;;;;;;3.63;1.17;;;27.80;99.90;;;;;;5119016;27;20233;-77
2023/12/30 05:49:04;;;;;;;5.57;1.45;;;27.50;99.90;;;;;;5131206;27;20294;-77
2023/12/30 05:51:35;;;;;;;5.40;1.70;;;27.70;99.90;;;;;;5129670;27;20209;-77
2023/12/30 05:54:06;;;;;;;4.47;1.45;;;28.00;99.90;;;;;;5129242;27;20209;-78
2023/12/30 05:56:38;;;;;;;4.03;1.25;;;28.40;99.90;;;;;;5130365;27;20232;-78
2023/12/30 05:59:09;;;;;;;5.93;1.35;;;28.90;99.90;;;;;;5114607;27;20208;-78
2023/12/30 06:01:47;;;;;;;3.13;1.30;;;29.00;99.90;;;;;;5126434;27;20191;-78
2023/12/30 06:04:18;;;;;;;4.25;1.33;;;28.50;99.90;;;;;;5129173;27;20741;-78
2023/12/30 06:06:49;;;;;;;6.50;1.63;;;28.60;99.90;;;;;;5128702;27;20200;-78
2023/12/30 06:09:23;;;;;;;6.90;1.80;;;28.30;99.90;;;;;;5132970;27;20216;-79
2023/12/30 06:11:55;;;;;;;8.02;1.90;;;28.00;99.90;;;;;;5132857;27;20201;-79
2023/12/30 06:14:26;;;;;;;7.40;1.90;;;27.50;99.90;;;;;;5127521;27;20201;-78
2023/12/30 06:16:57;;;;;;;6.95;2.03;;;27.20;99.90;;;;;;5120042;27;20241;-79
2023/12/30 06:19:28;;;;;;;6.97;2.10;;;27.00;99.90;;;;;;5116598;27;20214;-79
2023/12/30 06:21:59;;;;;;;7.88;2.10;;;27.00;99.90;;;;;;5123462;27;20239;-78
2023/12/30 06:24:29;;;;;;;5.50;2.10;;;26.80;99.90;;;;;;5132216;27;20204;-78
2023/12/30 06:27:02;;;;;;;10.05;2.60;;;26.70;99.90;;;;;;5124692;27;20225;-78
2023/12/30 06:29:33;;;;;;;8.43;2.67;;;26.60;99.90;;;;;;5122609;27;20214;-78
2023/12/30 06:32:04;;;;;;;10.82;2.80;;;26.50;99.90;;;;;;5131589;27;20190;-79
2023/12/30 06:34:35;;;;;;;9.98;2.42;;;26.30;99.90;;;;;;5132270;27;20194;-78
2023/12/30 06:37:05;;;;;;;5.60;2.45;;;26.30;99.90;;;;;;5115218;27;20377;-79
2023/12/30 06:39:36;;;;;;;9.60;2.88;;;26.20;99.90;;;;;;5118194;27;20333;-78
2023/12/30 06:42:09;;;;;;;9.30;2.60;;;26.00;99.90;;;;;;5118272;27;20723;-78
2023/12/30 06:44:40;;;;;;;10.10;2.60;;;25.80;99.90;;;;;;5131282;27;20690;-78
2023/12/30 06:47:12;;;;;;;7.53;2.50;;;25.70;99.90;;;;;;5118883;27;20301;-78
2023/12/30 06:49:43;;;;;;;9.27;2.22;;;25.90;99.90;;;;;;5133531;27;20244;-78
2023/12/30 06:52:13;;;;;;;7.43;2.25;;;26.10;99.90;;;;;;5127691;27;20194;-78
2023/12/30 06:54:44;;;;;;;10.75;2.65;;;26.00;99.90;;;;;;5116344;27;20196;-79
2023/12/30 06:57:19;;;;;;;8.75;2.70;;;26.00;99.90;;;;;;5130757;27;20236;-78
2023/12/30 06:59:50;;;;;;;8.23;2.67;;;26.00;99.90;;;;;;5127886;27;20209;-78
2023/12/30 07:02:21;;;;;;;7.63;2.58;;;25.90;99.90;;;;;;5131279;27;20293;-78
2023/12/30 07:04:52;;;;;;;9.48;2.67;;;25.80;99.90;;;;;;5123755;27;20687;-78
2023/12/30 07:07:22;;;;;;;10.05;2.72;;;25.70;99.90;;;;;;5128480;27;20217;-77
2023/12/30 07:09:53;;;;;;;7.15;2.28;;;25.60;99.90;;;;;;5122242;27;20232;-78
2023/12/30 07:12:26;;;;;;;6.60;2.42;;;25.50;99.90;;;;;;5130737;27;20281;-77
2023/12/30 07:14:57;;;;;;;8.52;2.40;;;25.50;99.90;;;;;;5131880;27;20220;-77
2023/12/30 07:17:28;;;;;;;9.10;2.50;;;25.50;99.90;;;;;;5130895;28;20232;-77
2023/12/30 07:19:59;;;;;;;9.73;2.45;;;25.50;99.90;;;;;;5131740;28;20678;-77
2023/12/30 07:22:30;;;;;;;5.95;2.35;;;25.30;99.90;;;;;;5131765;27;20209;-77
2023/12/30 07:25:01;;;;;;;7.53;2.25;;;25.20;99.90;;;;;;5131417;28;20655;-77
2023/12/30 07:27:34;;;;;;;4.97;2.15;;;25.10;99.90;;;;;;5115173;28;20202;-77
2023/12/30 07:30:05;;;;;;;9.00;2.40;;;25.10;99.90;;;;;;5120880;28;20289;-77
2023/12/30 07:32:37;;;;;;;7.32;2.35;;;25.10;99.90;;;;;;5131198;28;20201;-77
2023/12/30 07:35:08;;;;;;;6.78;2.42;;;25.10;99.90;;;;;;5111277;28;20649;-77
2023/12/30 07:37:39;;;;;;;7.30;2.33;;;25.10;99.90;;;;;;5113772;28;20715;-77
2023/12/30 07:40:11;;;;;;;5.65;2.22;;;25.00;99.90;;;;;;5137847;27;20193;-77
2023/12/30 07:42:44;;;;;;;6.03;2.22;;;25.00;99.90;;;;;;5125410;27;20198;-77
2023/12/30 07:45:15;;;;;;;9.40;2.42;;;24.90;99.90;;;;;;5130813;28;20693;-77
2023/12/30 07:47:45;;;;;;;8.25;2.13;;;24.90;99.90;;;;;;5130673;27;20207;-76
2023/12/30 07:50:17;;;;;;;6.95;2.35;;;24.80;99.90;;;;;;5134619;27;20200;-77
2023/12/30 07:52:47;;;;;;;9.55;2.20;;;24.80;99.90;;;;;;5124467;27;20238;-77
2023/12/30 07:55:18;;;;;;;8.70;2.10;;;24.70;99.90;;;;;;5116508;27;20190;-77
2023/12/30 07:57:51;;;;;;;7.82;2.40;;;24.60;99.90;;;;;;5133730;27;20221;-77
2023/12/30 08:00:22;;;;;;;6.90;2.17;;;24.50;99.90;;;;;;5118538;27;20187;-77
2023/12/30 08:02:53;;;;;;;6.93;2.03;;;24.50;99.90;;;;;;5114335;27;20202;-77
2023/12/30 08:05:24;;;;;;;6.55;2.20;;;24.40;99.90;;;;;;5114260;28;20194;-77
2023/12/30 08:07:54;;;;;;;6.75;1.55;;;24.30;99.90;;;;;;5129150;27;20234;-78
2023/12/30 08:10:25;;;;;;;8.38;2.30;;;24.30;99.90;;;;;;5134218;27;20309;-77
2023/12/30 08:12:58;;;;;;;10.90;2.28;;;24.30;99.90;;;;;;5134350;27;20203;-77
2023/12/30 08:15:29;;;;;;;7.43;1.98;;;24.20;99.90;;;;;;5122851;27;20211;-77
2023/12/30 08:17:59;;;;;;;8.25;2.28;;;24.30;99.90;;;;;;5113777;28;20691;-77
2023/12/30 08:20:30;;;;;;;10.48;2.67;;;24.30;99.90;;;;;;5118818;27;20540;-78
2023/12/30 08:23:01;;;;;;;7.57;2.83;;;24.30;99.90;;;;;;5134355;27;20575;-78
2023/12/30 08:25:32;;;;;;;10.40;2.50;;;24.30;99.90;;;;;;5133824;27;20205;-78
2023/12/30 08:28:04;;;;;;;7.80;2.60;;;24.30;99.90;;;;;;5133981;27;20202;-78
2023/12/30 08:30:35;;;;;;;4.82;1.98;;;24.20;99.90;;;;;;5133907;27;20648;-78
2023/12/30 08:33:09;;;;;;;6.10;2.10;;;24.10;99.90;;;;;;5126700;27;20738;-78
2023/12/30 08:35:40;;;;;;;5.53;2.05;;;24.00;99.90;;;;;;5113811;28;20216;-78
2023/12/30 08:38:11;;;;;;;9.05;2.33;;;24.00;99.90;;;;;;5124812;27;20704;-78
2023/12/30 08:40:41;;;;;;;7.68;2.20;;;24.00;99.90;;;;;;5133699;27;20281;-78
2023/12/30 08:43:14;;;;;;;7.20;2.30;;;23.90;99.90;;;;;;5133582;27;20198;-78
2023/12/30 08:45:45;;;;;;;7.78;2.08;;;24.00;99.90;;;;;;5133651;27;20201;-78
2023/12/30 08:48:16;;;;;;;8.93;2.40;;;24.00;99.90;;;;;;5133692;27;20206;-77
2023/12/30 08:50:48;;;;;;;6.25;2.50;;;24.00;99.90;;;;;;5122378;27;20244;-77
2023/12/30 08:53:24;;;;;;;5.53;2.03;;;23.90;99.90;;;;;;5113272;28;20678;-78
2023/12/30 08:55:55;;;;;;;5.28;2.00;;;23.90;99.90;;;;;;5130081;27;20205;-77
2023/12/30 08:58:28;;;;;;;5.13;1.95;;;23.90;99.90;;;;;;5133420;27;20228;-77
2023/12/30 09:00:58;;;;;;;6.35;2.00;;;23.90;99.90;;;;;;5132449;27;20193;-76
2023/12/30 09:03:29;;;;;;;7.20;1.92;;;23.90;99.90;;;;;;5132341;27;20209;-77
2023/12/30 09:06:00;;;;;;;8.52;1.88;;;23.80;99.90;;;;;;5112854;28;20264;-77
2023/12/30 09:08:31;;;;;;;6.55;1.77;;;23.70;99.90;;;;;;5124294;27;20212;-78
2023/12/30 09:11:01;;;;;;;4.95;1.77;;;23.70;99.90;;;;;;5133992;27;20704;-77
2023/12/30 09:13:35;;;;;;;6.68;1.42;;;23.80;99.90;;;;;;5134023;27;20276;-78
2023/12/30 09:16:06;;;;;;;7.25;1.50;;;23.70;99.90;;;;;;5134054;27;20214;-78
2023/12/30 09:18:37;;;;;;;8.77;2.08;;;23.70;99.90;;;;;;5134348;27;20291;-78
2023/12/30 09:21:07;;;;;;;7.88;2.10;;;23.70;99.90;;;;;;5133618;27;20233;-78
2023/12/30 09:23:38;;;;;;;4.85;1.88;;;23.70;99.90;;;;;;5115436;27;20205;-78
2023/12/30 09:26:09;;;;;;;6.72;1.90;;;23.70;99.90;;;;;;5116549;27;20297;-78
2023/12/30 09:28:42;;;;;;;5.70;1.63;;;23.70;99.90;;;;;;5121071;27;20209;-79
2023/12/30 09:31:13;;;;;;;6.47;1.92;;;23.70;99.90;;;;;;5133735;27;20205;-78
2023/12/30 09:33:44;;;;;;;8.25;1.83;;;23.70;99.90;;;;;;5134016;27;20557;-78
2023/12/30 09:36:15;;;;;;;4.18;1.50;;;23.70;99.90;;;;;;5136656;27;20277;-78
2023/12/30 09:38:46;;;;;;;6.95;1.83;;;23.70;99.90;;;;;;5132516;27;20229;-78
2023/12/30 09:41:17;;;;;;;6.22;1.63;;;23.70;99.90;;;;;;5122812;27;20201;-77
2023/12/30 09:43:52;;;;;;;7.75;2.10;;;23.70;99.90;;;;;;5132624;27;20280;-78
2023/12/30 09:46:23;;;;;;;4.90;1.48;;;23.70;99.90;;;;;;5132784;27;20215;-78
2023/12/30 09:48:57;;;;;;;6.47;1.75;;;23.70;99.90;;;;;;5132414;27;20198;-78
2023/12/30 09:51:30;;;;;;;10.18;1.65;;;23.70;99.90;;;;;;5122512;27;20265;-78
2023/12/30 09:54:01;;;;;;;7.07;1.70;;;23.70;99.90;;;;;;5112035;28;20202;-78
2023/12/30 09:56:33;;;;;;;4.97;1.98;;;23.70;99.90;;;;;;5120268;27;20233;-78
2023/12/30 09:59:06;;;;;;;7.35;2.05;;;23.70;99.90;;;;;;5111772;28;20682;-78
2023/12/30 10:01:38;;;;;;;5.97;1.58;;;23.70;99.90;;;;;;5112097;28;20213;-78
2023/12/30 10:04:09;;;;;;;5.95;1.80;;;23.60;99.90;;;;;;5131392;27;20225;-77
2023/12/30 10:06:42;;;;;;;5.45;1.77;;;23.60;99.90;;;;;;5132434;27;20198;-77
2023/12/30 10:09:14;;;;;;;5.50;1.58;;;23.60;99.90;;;;;;5131802;27;20281;-77
2023/12/30 10:11:45;;;;;;;5.38;1.60;;;23.60;99.90;;;;;;5128991;27;20278;-76
2023/12/30 10:14:18;;;;;;;6.63;1.70;;;23.60;99.90;;;;;;5112104;28;20252;-77
2023/12/30 10:16:49;;;;;;;5.13;1.70;;;23.60;99.90;;;;;;5114345;28;20230;-77
2023/12/30 10:19:22;;;;;;;6.60;1.88;;;23.60;99.90;;;;;;5121789;27;20570;-78
2023/12/30 10:21:53;;;;;;;6.07;1.88;;;23.60;99.90;;;;;;5133191;27;20204;-77
2023/12/30 10:24:24;;;;;;;4.68;1.58;;;23.60;99.90;;;;;;5133137;27;20190;-78
2023/12/30 10:26:58;;;;;;;5.18;1.42;;;23.60;99.90;;;;;;5132880;27;20280;-78
2023/12/30 10:29:31;;;;;;;5.53;1.60;;;23.50;99.90;;;;;;5131865;27;20193;-78
2023/12/30 10:32:03;;;;;;;6.10;1.85;;;23.50;99.90;;;;;;5131825;27;20659;-78
2023/12/30 10:34:40;;;;;;;3.10;1.60;;;23.50;99.90;;;;;;5123780;27;20641;-77
2023/12/30 10:37:12;;;;;;;5.63;1.67;;;23.50;99.90;;;;;;5124703;27;20300;-77
2023/12/30 10:39:47;;;;;;;8.60;1.60;;;23.50;99.90;;;;;;5133155;27;20193;-76
2023/12/30 10:42:20;;;;;;;8.20;1.67;;;23.40;99.90;;;;;;5132386;27;20599;-77
2023/12/30 10:44:56;;;;;;;3.22;1.40;;;23.30;99.90;;;;;;5115991;27;20209;-79
2023/12/30 10:47:29;;;;;;;4.78;2.00;;;23.30;99.90;;;;;;5121878;27;20193;-78
2023/12/30 10:50:06;;;;;;;9.27;2.00;;;23.30;99.90;;;;;;5111674;28;20202;-78
2023/12/30 10:52:42;;;;;;;4.68;1.40;;;23.20;99.90;;;;;;5130075;27;20594;-78
2023/12/30 10:55:17;;;;;;;7.68;1.80;;;23.10;99.90;;;;;;5134226;27;20211;-77
2023/12/30 10:57:59;;;;;;;7.65;2.03;;;23.00;99.90;;;;;;5132523;27;20493;-77
2023/12/30 11:00:35;;;;;;;3.72;1.40;;;22.90;99.90;;;;;;5131681;27;20668;-78
2023/12/30 11:03:07;;;;;;;7.10;1.77;;;22.70;99.90;;;;;;5120868;27;20684;-78
2023/12/30 11:05:43;;;;;;;3.72;1.30;;;22.60;99.90;;;;;;5131702;27;20212;-79
2023/12/30 11:08:17;;;;;;;6.20;1.60;;;22.40;99.90;;;;;;5117796;27;20219;-77
2023/12/30 11:10:48;;;;;;;5.85;1.92;;;22.40;99.90;;;;;;5123327;27;20231;-78
2023/12/30 11:13:21;;;;;;;4.55;1.70;;;22.30;99.90;;;;;;5123422;27;20602;-78
2023/12/30 11:15:54;;;;;;;6.03;1.67;;;22.10;99.90;;;;;;5127169;27;20194;-77
2023/12/30 11:18:52;;;;;;;5.80;1.50;;;22.00;99.90;;;;;;5110498;27;20265;-77
2023/12/30 11:21:42;;;;;;;5.53;1.88;;;22.00;99.90;;;;;;5127241;28;20217;-77
2023/12/30 11:24:14;;;;;;;3.88;1.27;;;21.90;99.90;;;;;;5118767;28;20652;-77
2023/12/30 11:26:47;;;;;;;6.70;2.03;;;21.90;99.90;;;;;;5131251;28;20229;-77
2023/12/30 11:29:20;;;;;;;5.93;1.70;;;21.80;99.90;;;;;;5122263;28;20227;-77
2023/12/30 11:31:53;;;;;;;3.05;1.20;;;21.80;99.90;;;;;;5128342;27;20196;-78
2023/12/30 11:34:24;;;;;;;4.43;1.45;;;21.70;99.90;;;;;;5130499;28;20205;-78
2023/12/30 11:36:56;;;;;;;3.80;1.27;;;21.70;99.90;;;;;;5123353;27;20573;-79
2023/12/30 11:39:28;;;;;;;4.20;1.42;;;21.70;99.90;;;;;;5132115;27;20272;-77
2023/12/30 11:42:02;;;;;;;7.07;1.67;;;21.70;99.90;;;;;;5137157;27;20198;-80
2023/12/30 11:44:33;;;;;;;5.78;1.70;;;21.60;99.90;;;;;;5136759;27;20224;-78
2023/12/30 11:47:06;;;;;;;7.75;1.58;;;21.60;99.90;;;;;;5126787;27;20211;-79
2023/12/30 11:49:37;;;;;;;5.78;1.60;;;21.70;99.90;;;;;;5131217;28;20224;-78
2023/12/30 11:52:10;;;;;;;4.88;1.48;;;21.70;99.90;;;;;;5135103;27;20273;-79
2023/12/30 11:54:40;;;;;;;5.43;1.73;;;21.60;99.90;;;;;;5121174;27;20190;-78
2023/12/30 11:57:14;;;;;;;4.70;1.60;;;21.60;99.90;;;;;;5131029;28;20239;-77
2023/12/30 11:59:46;;;;;;;4.60;1.60;;;21.60;99.90;;;;;;5124605;28;20198;-78
2023/12/30 12:02:21;;;;;;;4.00;1.55;;;21.60;99.90;;;;;;5123337;28;20635;-78
2023/12/30 12:04:52;;;;;;;5.75;1.73;;;21.50;99.90;;;;;;5124998;27;20543;-77
2023/12/30 12:07:22;;;;;;;6.15;1.70;;;21.50;99.90;;;;;;5117948;28;21300;-77
2023/12/30 12:09:53;;;;;;;5.72;1.80;;;21.50;99.90;;;;;;5126659;27;20217;-78
2023/12/30 12:12:27;;;;;;;6.05;2.10;;;21.50;99.90;;;;;;5124361;27;20192;-77
2023/12/30 12:14:58;;;;;;;8.80;2.10;;;21.50;99.90;;;;;;5128736;27;20198;-77
2023/12/30 12:17:31;;;;;;;6.53;2.15;;;21.40;99.90;;;;;;5127654;27;20214;-78
2023/12/30 12:20:04;;;;;;;6.32;2.03;;;21.40;99.90;;;;;;5130322;27;20215;-78
2023/12/30 12:22:35;;;;;;;7.15;2.03;;;21.40;99.90;;;;;;5132327;27;20679;-78
2023/12/30 12:25:06;;;;;;;6.40;2.20;;;21.40;99.90;;;;;;5134353;27;20212;-77
2023/12/30 12:27:37;;;;;;;7.47;1.98;;;21.40;99.90;;;;;;5132591;27;20190;-78
2023/12/30 12:30:09;;;;;;;8.48;1.92;;;21.40;99.90;;;;;;5128125;28;20194;-78
2023/12/30 12:32:45;;;;;;;11.35;2.53;;;21.40;99.90;;;;;;5126683;27;20222;-78
2023/12/30 12:35:15;;;;;;;7.47;2.10;;;21.40;99.90;;;;;;5130924;27;20219;-77
2023/12/30 12:37:46;;;;;;;8.32;2.35;;;21.30;99.90;;;;;;5136124;27;20603;-77
2023/12/30 12:40:17;;;;;;;9.60;2.42;;;21.30;99.90;;;;;;5135290;27;20210;-77
2023/12/30 12:42:48;;;;;;;9.77;2.75;;;21.20;99.90;;;;;;5132448;27;20213;-77
2023/12/30 12:45:19;;;;;;;9.10;2.53;;;21.20;99.90;;;;;;5136036;27;20227;-78
2023/12/30 12:47:51;;;;;;;9.55;2.40;;;21.20;99.90;;;;;;5112834;27;20194;-77
2023/12/30 12:50:22;;;;;;;8.68;2.10;;;21.10;99.90;;;;;;5131704;27;20198;-77
2023/12/30 12:52:53;;;;;;;7.63;2.60;;;21.10;99.90;;;;;;5129345;27;20228;-77
2023/12/30 12:55:24;;;;;;;9.35;2.80;;;21.10;99.90;;;;;;5126790;27;20210;-75
2023/12/30 12:57:55;;;;;;;7.97;2.05;;;21.10;99.90;;;;;;5126785;27;20258;-77
2023/12/30 13:00:27;;;;;;;6.70;2.22;;;21.20;99.90;;;;;;5124389;27;20221;-78
2023/12/30 13:02:59;;;;;;;9.77;2.70;;;21.10;99.90;;;;;;5142269;27;20225;-79
2023/12/30 13:05:30;;;;;;;10.32;2.42;;;21.10;99.90;;;;;;5142841;27;20540;-79
2023/12/30 13:08:01;;;;;;;12.07;2.92;;;21.10;99.90;;;;;;5141481;27;20295;-79